sensor_id;sensor_type;location;lat;lon;timestamp;P1;durP1;ratioP1;P2;durP2;ratioP2
52798;SDS011;38667;42.872;74.622;2024-02-04T00:02:08;59.47;;;24.00;;
52798;SDS011;38667;42.872;74.622;2024-02-04T00:04:34;55.17;;;23.43;;
52798;SDS011;38667;42.872;74.622;2024-02-04T00:07:01;64.97;;;26.43;;
52798;SDS011;38667;42.872;74.622;2024-02-04T00:09:27;111.67;;;39.47;;
52798;SDS011;38667;42.872;74.622;2024-02-04T00:11:53;114.73;;;41.40;;
52798;SDS011;38667;42.872;74.622;2024-02-04T00:14:20;116.13;;;41.33;;
52798;SDS011;38667;42.872;74.622;2024-02-04T00:16:48;100.03;;;38.27;;
52798;SDS011;38667;42.872;74.622;2024-02-04T00:19:14;72.97;;;28.03;;
52798;SDS011;38667;42.872;74.622;2024-02-04T00:21:40;81.13;;;32.03;;
52798;SDS011;38667;42.872;74.622;2024-02-04T00:24:07;76.23;;;32.60;;
52798;SDS011;38667;42.872;74.622;2024-02-04T00:26:33;77.93;;;27.57;;
52798;SDS011;38667;42.872;74.622;2024-02-04T00:28:59;64.37;;;26.83;;
52798;SDS011;38667;42.872;74.622;2024-02-04T00:31:26;65.33;;;27.43;;
52798;SDS011;38667;42.872;74.622;2024-02-04T00:33:54;76.80;;;28.77;;
52798;SDS011;38667;42.872;74.622;2024-02-04T00:36:20;81.67;;;31.17;;
52798;SDS011;38667;42.872;74.622;2024-02-04T00:38:46;88.83;;;35.60;;
52798;SDS011;38667;42.872;74.622;2024-02-04T00:41:13;81.90;;;33.73;;
52798;SDS011;38667;42.872;74.622;2024-02-04T00:43:39;83.60;;;33.50;;
52798;SDS011;38667;42.872;74.622;2024-02-04T00:46:06;68.23;;;26.80;;
52798;SDS011;38667;42.872;74.622;2024-02-04T00:48:32;57.87;;;24.07;;
52798;SDS011;38667;42.872;74.622;2024-02-04T00:51:00;54.40;;;22.30;;
52798;SDS011;38667;42.872;74.622;2024-02-04T00:53:26;50.87;;;20.83;;
52798;SDS011;38667;42.872;74.622;2024-02-04T00:55:52;43.43;;;17.63;;
52798;SDS011;38667;42.872;74.622;2024-02-04T00:58:19;40.10;;;16.17;;
52798;SDS011;38667;42.872;74.622;2024-02-04T01:00:45;60.47;;;22.03;;
52798;SDS011;38667;42.872;74.622;2024-02-04T01:03:11;69.40;;;27.37;;
52798;SDS011;38667;42.872;74.622;2024-02-04T01:05:38;57.27;;;23.80;;
52798;SDS011;38667;42.872;74.622;2024-02-04T01:08:06;68.70;;;28.17;;
52798;SDS011;38667;42.872;74.622;2024-02-04T01:10:32;57.67;;;23.67;;
52798;SDS011;38667;42.872;74.622;2024-02-04T01:12:59;63.40;;;25.50;;
52798;SDS011;38667;42.872;74.622;2024-02-04T01:15:25;56.20;;;23.03;;
52798;SDS011;38667;42.872;74.622;2024-02-04T01:17:52;49.03;;;21.47;;
52798;SDS011;38667;42.872;74.622;2024-02-04T01:20:18;59.57;;;22.17;;
52798;SDS011;38667;42.872;74.622;2024-02-04T01:22:45;54.30;;;20.50;;
52798;SDS011;38667;42.872;74.622;2024-02-04T01:25:12;53.67;;;20.53;;
52798;SDS011;38667;42.872;74.622;2024-02-04T01:27:39;44.50;;;15.97;;
52798;SDS011;38667;42.872;74.622;2024-02-04T01:30:06;41.70;;;17.87;;
52798;SDS011;38667;42.872;74.622;2024-02-04T01:32:32;45.23;;;17.80;;
52798;SDS011;38667;42.872;74.622;2024-02-04T01:34:59;49.13;;;19.63;;
52798;SDS011;38667;42.872;74.622;2024-02-04T01:37:25;58.30;;;21.40;;
52798;SDS011;38667;42.872;74.622;2024-02-04T01:39:51;50.43;;;21.43;;
52798;SDS011;38667;42.872;74.622;2024-02-04T01:42:19;50.03;;;21.10;;
52798;SDS011;38667;42.872;74.622;2024-02-04T01:44:46;50.03;;;21.30;;
52798;SDS011;38667;42.872;74.622;2024-02-04T01:47:12;63.63;;;22.37;;
52798;SDS011;38667;42.872;74.622;2024-02-04T01:49:39;53.57;;;21.53;;
52798;SDS011;38667;42.872;74.622;2024-02-04T01:52:05;51.37;;;20.63;;
52798;SDS011;38667;42.872;74.622;2024-02-04T01:54:33;49.80;;;21.67;;
52798;SDS011;38667;42.872;74.622;2024-02-04T01:57:02;59.43;;;21.90;;
52798;SDS011;38667;42.872;74.622;2024-02-04T01:59:31;50.80;;;21.57;;
52798;SDS011;38667;42.872;74.622;2024-02-04T02:01:57;53.03;;;21.83;;
52798;SDS011;38667;42.872;74.622;2024-02-04T02:04:25;50.00;;;20.37;;
52798;SDS011;38667;42.872;74.622;2024-02-04T02:06:52;46.73;;;19.83;;
52798;SDS011;38667;42.872;74.622;2024-02-04T02:09:19;46.67;;;20.57;;
52798;SDS011;38667;42.872;74.622;2024-02-04T02:11:46;43.40;;;17.97;;
52798;SDS011;38667;42.872;74.622;2024-02-04T02:14:18;48.23;;;19.50;;
52798;SDS011;38667;42.872;74.622;2024-02-04T02:16:51;66.47;;;28.43;;
52798;SDS011;38667;42.872;74.622;2024-02-04T02:19:28;71.03;;;31.23;;
52798;SDS011;38667;42.872;74.622;2024-02-04T02:22:06;253.63;;;91.13;;
52798;SDS011;38667;42.872;74.622;2024-02-04T02:24:45;317.47;;;114.90;;
52798;SDS011;38667;42.872;74.622;2024-02-04T02:27:14;210.53;;;69.97;;
52798;SDS011;38667;42.872;74.622;2024-02-04T02:29:40;151.37;;;47.53;;
52798;SDS011;38667;42.872;74.622;2024-02-04T02:32:07;120.93;;;42.30;;
52798;SDS011;38667;42.872;74.622;2024-02-04T02:34:33;98.20;;;33.87;;
52798;SDS011;38667;42.872;74.622;2024-02-04T02:37:07;60.67;;;24.47;;
52798;SDS011;38667;42.872;74.622;2024-02-04T02:39:42;60.50;;;23.17;;
52798;SDS011;38667;42.872;74.622;2024-02-04T02:42:15;58.77;;;23.03;;
52798;SDS011;38667;42.872;74.622;2024-02-04T02:44:44;59.67;;;22.00;;
52798;SDS011;38667;42.872;74.622;2024-02-04T02:47:11;65.07;;;23.23;;
52798;SDS011;38667;42.872;74.622;2024-02-04T02:49:39;52.07;;;20.80;;
52798;SDS011;38667;42.872;74.622;2024-02-04T02:52:05;52.37;;;19.27;;
52798;SDS011;38667;42.872;74.622;2024-02-04T02:54:32;38.33;;;16.70;;
52798;SDS011;38667;42.872;74.622;2024-02-04T02:57:00;39.97;;;15.43;;
52798;SDS011;38667;42.872;74.622;2024-02-04T02:59:26;37.13;;;14.57;;
52798;SDS011;38667;42.872;74.622;2024-02-04T03:01:53;37.33;;;14.60;;
52798;SDS011;38667;42.872;74.622;2024-02-04T03:04:19;53.43;;;20.30;;
52798;SDS011;38667;42.872;74.622;2024-02-04T03:06:45;49.27;;;20.53;;
52798;SDS011;38667;42.872;74.622;2024-02-04T03:09:12;49.03;;;19.67;;
52798;SDS011;38667;42.872;74.622;2024-02-04T03:11:38;33.03;;;11.87;;
52798;SDS011;38667;42.872;74.622;2024-02-04T03:14:06;26.97;;;11.97;;
52798;SDS011;38667;42.872;74.622;2024-02-04T03:16:32;33.77;;;13.10;;
52798;SDS011;38667;42.872;74.622;2024-02-04T03:18:59;27.63;;;12.10;;
52798;SDS011;38667;42.872;74.622;2024-02-04T03:21:25;35.97;;;13.10;;
52798;SDS011;38667;42.872;74.622;2024-02-04T03:23:51;35.43;;;15.50;;
52798;SDS011;38667;42.872;74.622;2024-02-04T03:26:18;42.53;;;16.20;;
52798;SDS011;38667;42.872;74.622;2024-02-04T03:28:44;41.40;;;17.60;;
52798;SDS011;38667;42.872;74.622;2024-02-04T03:31:12;48.63;;;17.90;;
52798;SDS011;38667;42.872;74.622;2024-02-04T03:33:45;58.20;;;20.10;;
52798;SDS011;38667;42.872;74.622;2024-02-04T03:36:11;54.60;;;18.43;;
52798;SDS011;38667;42.872;74.622;2024-02-04T03:38:41;50.53;;;17.20;;
52798;SDS011;38667;42.872;74.622;2024-02-04T03:41:07;45.07;;;17.47;;
52798;SDS011;38667;42.872;74.622;2024-02-04T03:43:35;72.93;;;27.80;;
52798;SDS011;38667;42.872;74.622;2024-02-04T03:46:02;81.57;;;27.17;;
52798;SDS011;38667;42.872;74.622;2024-02-04T03:48:30;69.80;;;32.20;;
52798;SDS011;38667;42.872;74.622;2024-02-04T03:50:56;75.53;;;34.27;;
52798;SDS011;38667;42.872;74.622;2024-02-04T03:53:22;92.20;;;37.17;;
52798;SDS011;38667;42.872;74.622;2024-02-04T03:55:49;97.77;;;40.50;;
52798;SDS011;38667;42.872;74.622;2024-02-04T03:58:15;112.87;;;41.80;;
52798;SDS011;38667;42.872;74.622;2024-02-04T04:00:41;83.00;;;32.37;;
52798;SDS011;38667;42.872;74.622;2024-02-04T04:03:08;173.10;;;67.03;;
52798;SDS011;38667;42.872;74.622;2024-02-04T04:05:36;193.70;;;75.53;;
52798;SDS011;38667;42.872;74.622;2024-02-04T04:08:02;229.50;;;87.80;;
52798;SDS011;38667;42.872;74.622;2024-02-04T04:10:29;214.07;;;85.93;;
52798;SDS011;38667;42.872;74.622;2024-02-04T04:12:55;206.47;;;84.60;;
52798;SDS011;38667;42.872;74.622;2024-02-04T04:15:22;191.63;;;78.87;;
52798;SDS011;38667;42.872;74.622;2024-02-04T04:17:48;227.03;;;89.80;;
52798;SDS011;38667;42.872;74.622;2024-02-04T04:20:14;198.30;;;73.30;;
52798;SDS011;38667;42.872;74.622;2024-02-04T04:22:43;138.13;;;57.53;;
52798;SDS011;38667;42.872;74.622;2024-02-04T04:25:10;147.93;;;50.60;;
52798;SDS011;38667;42.872;74.622;2024-02-04T04:27:36;136.17;;;51.07;;
52798;SDS011;38667;42.872;74.622;2024-02-04T04:30:03;121.13;;;48.40;;
52798;SDS011;38667;42.872;74.622;2024-02-04T04:32:29;125.33;;;48.07;;
52798;SDS011;38667;42.872;74.622;2024-02-04T04:34:56;100.87;;;40.43;;
52798;SDS011;38667;42.872;74.622;2024-02-04T04:37:22;83.73;;;36.47;;
52798;SDS011;38667;42.872;74.622;2024-02-04T04:39:50;85.83;;;35.40;;
52798;SDS011;38667;42.872;74.622;2024-02-04T04:42:16;73.30;;;29.97;;
52798;SDS011;38667;42.872;74.622;2024-02-04T04:44:43;77.20;;;29.73;;
52798;SDS011;38667;42.872;74.622;2024-02-04T04:47:09;87.07;;;34.47;;
52798;SDS011;38667;42.872;74.622;2024-02-04T04:49:36;58.10;;;24.87;;
52798;SDS011;38667;42.872;74.622;2024-02-04T04:52:02;61.60;;;23.40;;
52798;SDS011;38667;42.872;74.622;2024-02-04T04:54:29;76.53;;;31.80;;
52798;SDS011;38667;42.872;74.622;2024-02-04T04:56:57;65.63;;;25.60;;
52798;SDS011;38667;42.872;74.622;2024-02-04T04:59:23;71.37;;;25.63;;
52798;SDS011;38667;42.872;74.622;2024-02-04T05:01:49;72.90;;;27.40;;
52798;SDS011;38667;42.872;74.622;2024-02-04T05:04:16;73.13;;;26.23;;
52798;SDS011;38667;42.872;74.622;2024-02-04T05:06:43;60.70;;;25.73;;
52798;SDS011;38667;42.872;74.622;2024-02-04T05:09:09;57.10;;;25.83;;
52798;SDS011;38667;42.872;74.622;2024-02-04T05:11:35;74.20;;;29.27;;
52798;SDS011;38667;42.872;74.622;2024-02-04T05:14:03;69.93;;;29.20;;
52798;SDS011;38667;42.872;74.622;2024-02-04T05:16:30;53.70;;;25.70;;
52798;SDS011;38667;42.872;74.622;2024-02-04T05:18:56;86.73;;;37.03;;
52798;SDS011;38667;42.872;74.622;2024-02-04T05:21:22;80.63;;;30.73;;
52798;SDS011;38667;42.872;74.622;2024-02-04T05:23:49;80.93;;;31.00;;
52798;SDS011;38667;42.872;74.622;2024-02-04T05:26:17;91.13;;;32.27;;
52798;SDS011;38667;42.872;74.622;2024-02-04T05:28:43;116.53;;;41.37;;
52798;SDS011;38667;42.872;74.622;2024-02-04T05:31:11;66.17;;;30.27;;
52798;SDS011;38667;42.872;74.622;2024-02-04T05:33:38;60.07;;;26.40;;
52798;SDS011;38667;42.872;74.622;2024-02-04T05:36:04;80.47;;;28.43;;
52798;SDS011;38667;42.872;74.622;2024-02-04T05:38:31;72.80;;;29.07;;
52798;SDS011;38667;42.872;74.622;2024-02-04T05:40:57;74.23;;;27.30;;
52798;SDS011;38667;42.872;74.622;2024-02-04T05:43:23;68.03;;;26.70;;
52798;SDS011;38667;42.872;74.622;2024-02-04T05:45:50;55.73;;;24.07;;
52798;SDS011;38667;42.872;74.622;2024-02-04T05:48:19;66.47;;;24.90;;
52798;SDS011;38667;42.872;74.622;2024-02-04T05:50:45;71.87;;;26.60;;
52798;SDS011;38667;42.872;74.622;2024-02-04T05:53:12;54.50;;;22.87;;
52798;SDS011;38667;42.872;74.622;2024-02-04T05:55:39;57.10;;;21.77;;
52798;SDS011;38667;42.872;74.622;2024-02-04T05:58:05;59.87;;;22.23;;
52798;SDS011;38667;42.872;74.622;2024-02-04T06:00:31;51.90;;;21.90;;
52798;SDS011;38667;42.872;74.622;2024-02-04T06:02:58;47.47;;;20.27;;
52798;SDS011;38667;42.872;74.622;2024-02-04T06:05:26;55.23;;;23.73;;
52798;SDS011;38667;42.872;74.622;2024-02-04T06:07:52;50.80;;;22.00;;
52798;SDS011;38667;42.872;74.622;2024-02-04T06:10:18;60.13;;;24.33;;
52798;SDS011;38667;42.872;74.622;2024-02-04T06:12:45;58.03;;;22.67;;
52798;SDS011;38667;42.872;74.622;2024-02-04T06:15:14;58.20;;;25.87;;
52798;SDS011;38667;42.872;74.622;2024-02-04T06:17:41;57.30;;;23.30;;
52798;SDS011;38667;42.872;74.622;2024-02-04T06:20:08;63.00;;;24.40;;
52798;SDS011;38667;42.872;74.622;2024-02-04T06:22:36;83.20;;;30.77;;
52798;SDS011;38667;42.872;74.622;2024-02-04T06:25:03;77.47;;;31.97;;
52798;SDS011;38667;42.872;74.622;2024-02-04T06:27:30;77.47;;;30.53;;
52798;SDS011;38667;42.872;74.622;2024-02-04T06:29:56;78.50;;;30.47;;
52798;SDS011;38667;42.872;74.622;2024-02-04T06:32:23;73.43;;;32.00;;
52798;SDS011;38667;42.872;74.622;2024-02-04T06:34:49;61.85;;;28.60;;
52798;SDS011;38667;42.872;74.622;2024-02-04T06:37:15;72.45;;;29.38;;
52798;SDS011;38667;42.872;74.622;2024-02-04T06:39:43;87.25;;;30.50;;
52798;SDS011;38667;42.872;74.622;2024-02-04T06:42:10;87.05;;;36.00;;
52798;SDS011;38667;42.872;74.622;2024-02-04T06:44:36;90.77;;;36.60;;
52798;SDS011;38667;42.872;74.622;2024-02-04T06:47:03;74.63;;;36.17;;
52798;SDS011;38667;42.872;74.622;2024-02-04T06:49:29;94.95;;;42.58;;
52798;SDS011;38667;42.872;74.622;2024-02-04T06:51:55;81.00;;;36.63;;
52798;SDS011;38667;42.872;74.622;2024-02-04T06:54:22;266.98;;;98.53;;
52798;SDS011;38667;42.872;74.622;2024-02-04T06:56:50;178.05;;;70.57;;
52798;SDS011;38667;42.872;74.622;2024-02-04T06:59:17;153.60;;;60.25;;
52798;SDS011;38667;42.872;74.622;2024-02-04T07:01:43;118.95;;;46.75;;
52798;SDS011;38667;42.872;74.622;2024-02-04T07:04:09;80.45;;;36.25;;
52798;SDS011;38667;42.872;74.622;2024-02-04T07:06:36;88.13;;;37.20;;
52798;SDS011;38667;42.872;74.622;2024-02-04T07:09:02;95.65;;;42.00;;
52798;SDS011;38667;42.872;74.622;2024-02-04T07:11:28;64.35;;;27.98;;
52798;SDS011;38667;42.872;74.622;2024-02-04T07:13:57;73.30;;;34.08;;
52798;SDS011;38667;42.872;74.622;2024-02-04T07:16:24;79.75;;;34.90;;
52798;SDS011;38667;42.872;74.622;2024-02-04T07:18:50;82.00;;;35.05;;
52798;SDS011;38667;42.872;74.622;2024-02-04T07:21:16;80.57;;;31.42;;
52798;SDS011;38667;42.872;74.622;2024-02-04T07:23:43;77.60;;;34.35;;
52798;SDS011;38667;42.872;74.622;2024-02-04T07:26:09;73.55;;;30.98;;
52798;SDS011;38667;42.872;74.622;2024-02-04T07:28:36;88.75;;;41.83;;
52798;SDS011;38667;42.872;74.622;2024-02-04T07:31:05;119.22;;;52.53;;
52798;SDS011;38667;42.872;74.622;2024-02-04T07:33:32;92.50;;;39.05;;
52798;SDS011;38667;42.872;74.622;2024-02-04T07:35:58;122.65;;;54.85;;
52798;SDS011;38667;42.872;74.622;2024-02-04T07:38:25;112.40;;;48.33;;
52798;SDS011;38667;42.872;74.622;2024-02-04T07:40:51;67.00;;;32.83;;
52798;SDS011;38667;42.872;74.622;2024-02-04T07:43:17;60.03;;;30.70;;
52798;SDS011;38667;42.872;74.622;2024-02-04T07:45:44;61.03;;;29.40;;
52798;SDS011;38667;42.872;74.622;2024-02-04T07:48:13;68.50;;;29.10;;
52798;SDS011;38667;42.872;74.622;2024-02-04T07:50:39;63.53;;;28.52;;
52798;SDS011;38667;42.872;74.622;2024-02-04T07:53:06;55.78;;;26.08;;
52798;SDS011;38667;42.872;74.622;2024-02-04T07:55:32;66.15;;;26.90;;
52798;SDS011;38667;42.872;74.622;2024-02-04T07:57:58;50.95;;;23.73;;
52798;SDS011;38667;42.872;74.622;2024-02-04T08:00:25;50.90;;;22.30;;
52798;SDS011;38667;42.872;74.622;2024-02-04T08:02:51;72.32;;;28.30;;
52798;SDS011;38667;42.872;74.622;2024-02-04T08:05:19;83.75;;;31.38;;
52798;SDS011;38667;42.872;74.622;2024-02-04T08:07:45;113.57;;;45.60;;
52798;SDS011;38667;42.872;74.622;2024-02-04T08:10:12;57.22;;;25.15;;
52798;SDS011;38667;42.872;74.622;2024-02-04T08:12:38;50.97;;;21.60;;
52798;SDS011;38667;42.872;74.622;2024-02-04T08:15:05;68.55;;;28.27;;
52798;SDS011;38667;42.872;74.622;2024-02-04T08:17:32;65.40;;;30.88;;
52798;SDS011;38667;42.872;74.622;2024-02-04T08:19:58;59.28;;;25.48;;
52798;SDS011;38667;42.872;74.622;2024-02-04T08:22:26;50.95;;;23.75;;
52798;SDS011;38667;42.872;74.622;2024-02-04T08:24:52;59.20;;;25.67;;
52798;SDS011;38667;42.872;74.622;2024-02-04T08:27:19;51.65;;;25.48;;
52798;SDS011;38667;42.872;74.622;2024-02-04T08:29:45;59.95;;;24.85;;
52798;SDS011;38667;42.872;74.622;2024-02-04T08:32:11;57.78;;;24.95;;
52798;SDS011;38667;42.872;74.622;2024-02-04T08:34:38;57.10;;;23.48;;
52798;SDS011;38667;42.872;74.622;2024-02-04T08:37:04;51.47;;;21.70;;
52798;SDS011;38667;42.872;74.622;2024-02-04T08:39:33;51.83;;;23.33;;
52798;SDS011;38667;42.872;74.622;2024-02-04T08:41:59;51.25;;;21.55;;
52798;SDS011;38667;42.872;74.622;2024-02-04T08:44:25;47.90;;;19.85;;
52798;SDS011;38667;42.872;74.622;2024-02-04T08:46:52;53.33;;;22.90;;
52798;SDS011;38667;42.872;74.622;2024-02-04T08:49:18;108.10;;;38.83;;
52798;SDS011;38667;42.872;74.622;2024-02-04T08:51:44;68.35;;;25.48;;
52798;SDS011;38667;42.872;74.622;2024-02-04T08:54:11;41.90;;;17.77;;
52798;SDS011;38667;42.872;74.622;2024-02-04T08:56:39;41.15;;;18.42;;
52798;SDS011;38667;42.872;74.622;2024-02-04T08:59:05;54.90;;;20.10;;
52798;SDS011;38667;42.872;74.622;2024-02-04T09:01:32;50.05;;;20.92;;
52798;SDS011;38667;42.872;74.622;2024-02-04T09:03:58;42.30;;;20.88;;
52798;SDS011;38667;42.872;74.622;2024-02-04T09:06:24;61.05;;;25.40;;
52798;SDS011;38667;42.872;74.622;2024-02-04T09:08:51;63.33;;;27.00;;
52798;SDS011;38667;42.872;74.622;2024-02-04T09:11:17;71.80;;;26.40;;
52798;SDS011;38667;42.872;74.622;2024-02-04T09:13:45;60.38;;;26.27;;
52798;SDS011;38667;42.872;74.622;2024-02-04T09:16:12;70.65;;;26.45;;
52798;SDS011;38667;42.872;74.622;2024-02-04T09:18:38;67.40;;;27.13;;
52798;SDS011;38667;42.872;74.622;2024-02-04T09:21:05;66.10;;;29.63;;
52798;SDS011;38667;42.872;74.622;2024-02-04T09:23:31;61.53;;;27.95;;
52798;SDS011;38667;42.872;74.622;2024-02-04T09:25:58;54.65;;;24.75;;
52798;SDS011;38667;42.872;74.622;2024-02-04T09:28:24;53.50;;;26.35;;
52798;SDS011;38667;42.872;74.622;2024-02-04T09:30:52;53.28;;;23.17;;
52798;SDS011;38667;42.872;74.622;2024-02-04T09:33:18;46.30;;;19.70;;
52798;SDS011;38667;42.872;74.622;2024-02-04T09:35:45;40.70;;;17.85;;
52798;SDS011;38667;42.872;74.622;2024-02-04T09:38:11;39.00;;;16.70;;
52798;SDS011;38667;42.872;74.622;2024-02-04T09:40:37;41.47;;;16.83;;
52798;SDS011;38667;42.872;74.622;2024-02-04T09:43:04;31.40;;;15.38;;
52798;SDS011;38667;42.872;74.622;2024-02-04T09:45:31;43.20;;;14.83;;
52798;SDS011;38667;42.872;74.622;2024-02-04T09:48:00;38.38;;;16.35;;
52798;SDS011;38667;42.872;74.622;2024-02-04T09:50:27;33.33;;;15.63;;
52798;SDS011;38667;42.872;74.622;2024-02-04T09:52:55;40.58;;;15.75;;
52798;SDS011;38667;42.872;74.622;2024-02-04T09:55:24;34.45;;;13.48;;
52798;SDS011;38667;42.872;74.622;2024-02-04T09:57:52;24.65;;;11.23;;
52798;SDS011;38667;42.872;74.622;2024-02-04T10:00:18;27.47;;;12.83;;
52798;SDS011;38667;42.872;74.622;2024-02-04T10:02:45;24.13;;;11.90;;
52798;SDS011;38667;42.872;74.622;2024-02-04T10:05:16;23.63;;;12.63;;
52798;SDS011;38667;42.872;74.622;2024-02-04T10:07:42;42.83;;;18.07;;
52798;SDS011;38667;42.872;74.622;2024-02-04T10:10:09;45.15;;;19.05;;
52798;SDS011;38667;42.872;74.622;2024-02-04T10:12:36;37.42;;;17.38;;
52798;SDS011;38667;42.872;74.622;2024-02-04T10:15:02;41.07;;;18.60;;
52798;SDS011;38667;42.872;74.622;2024-02-04T10:17:30;56.67;;;21.83;;
52798;SDS011;38667;42.872;74.622;2024-02-04T10:19:56;46.20;;;17.17;;
52798;SDS011;38667;42.872;74.622;2024-02-04T10:22:25;48.15;;;17.42;;
52798;SDS011;38667;42.872;74.622;2024-02-04T10:24:52;43.63;;;18.93;;
52798;SDS011;38667;42.872;74.622;2024-02-04T10:27:19;44.50;;;16.87;;
52798;SDS011;38667;42.872;74.622;2024-02-04T10:29:46;39.17;;;15.07;;
52798;SDS011;38667;42.872;74.622;2024-02-04T10:32:12;34.17;;;14.13;;
52798;SDS011;38667;42.872;74.622;2024-02-04T10:34:39;45.72;;;13.43;;
52798;SDS011;38667;42.872;74.622;2024-02-04T10:37:05;41.63;;;14.73;;
52798;SDS011;38667;42.872;74.622;2024-02-04T10:39:33;46.77;;;17.67;;
52798;SDS011;38667;42.872;74.622;2024-02-04T10:42:01;46.20;;;20.77;;
52798;SDS011;38667;42.872;74.622;2024-02-04T10:44:28;75.93;;;36.70;;
52798;SDS011;38667;42.872;74.622;2024-02-04T10:46:57;93.93;;;40.83;;
52798;SDS011;38667;42.872;74.622;2024-02-04T10:49:27;82.90;;;36.93;;
52798;SDS011;38667;42.872;74.622;2024-02-04T10:51:54;79.23;;;35.17;;
52798;SDS011;38667;42.872;74.622;2024-02-04T10:54:24;88.23;;;39.43;;
52798;SDS011;38667;42.872;74.622;2024-02-04T10:56:55;78.77;;;37.33;;
52798;SDS011;38667;42.872;74.622;2024-02-04T10:59:25;94.27;;;39.40;;
52798;SDS011;38667;42.872;74.622;2024-02-04T11:01:54;97.80;;;38.73;;
52798;SDS011;38667;42.872;74.622;2024-02-04T11:04:21;79.80;;;37.53;;
52798;SDS011;38667;42.872;74.622;2024-02-04T11:06:49;112.83;;;41.33;;
52798;SDS011;38667;42.872;74.622;2024-02-04T11:09:15;103.43;;;43.13;;
52798;SDS011;38667;42.872;74.622;2024-02-04T11:11:43;125.83;;;53.17;;
52798;SDS011;38667;42.872;74.622;2024-02-04T11:14:11;108.20;;;44.43;;
52798;SDS011;38667;42.872;74.622;2024-02-04T11:16:46;59.27;;;25.33;;
52798;SDS011;38667;42.872;74.622;2024-02-04T11:19:32;50.73;;;19.10;;
52798;SDS011;38667;42.872;74.622;2024-02-04T11:22:15;32.73;;;14.00;;
52798;SDS011;38667;42.872;74.622;2024-02-04T11:24:53;29.30;;;13.03;;
52798;SDS011;38667;42.872;74.622;2024-02-04T11:27:34;22.47;;;10.90;;
52798;SDS011;38667;42.872;74.622;2024-02-04T11:30:03;56.47;;;17.40;;
52798;SDS011;38667;42.872;74.622;2024-02-04T11:32:30;50.00;;;19.37;;
52798;SDS011;38667;42.872;74.622;2024-02-04T11:34:57;61.73;;;25.57;;
52798;SDS011;38667;42.872;74.622;2024-02-04T11:37:23;68.83;;;35.63;;
52798;SDS011;38667;42.872;74.622;2024-02-04T11:39:50;50.50;;;23.43;;
52798;SDS011;38667;42.872;74.622;2024-02-04T11:42:17;46.90;;;20.73;;
52798;SDS011;38667;42.872;74.622;2024-02-04T11:44:43;35.73;;;15.83;;
52798;SDS011;38667;42.872;74.622;2024-02-04T11:47:11;54.43;;;19.10;;
52798;SDS011;38667;42.872;74.622;2024-02-04T11:49:53;40.47;;;17.90;;
52798;SDS011;38667;42.872;74.622;2024-02-04T11:52:20;43.93;;;18.47;;
52798;SDS011;38667;42.872;74.622;2024-02-04T11:54:46;40.67;;;17.17;;
52798;SDS011;38667;42.872;74.622;2024-02-04T11:57:13;50.00;;;18.90;;
52798;SDS011;38667;42.872;74.622;2024-02-04T11:59:42;48.90;;;19.10;;
52798;SDS011;38667;42.872;74.622;2024-02-04T12:02:08;48.77;;;18.30;;
52798;SDS011;38667;42.872;74.622;2024-02-04T12:04:36;49.13;;;19.20;;
52798;SDS011;38667;42.872;74.622;2024-02-04T12:07:03;59.00;;;20.23;;
52798;SDS011;38667;42.872;74.622;2024-02-04T12:09:30;60.93;;;20.67;;
52798;SDS011;38667;42.872;74.622;2024-02-04T12:11:57;50.27;;;20.30;;
52798;SDS011;38667;42.872;74.622;2024-02-04T12:14:23;41.93;;;20.07;;
52798;SDS011;38667;42.872;74.622;2024-02-04T12:16:50;40.47;;;20.37;;
52798;SDS011;38667;42.872;74.622;2024-02-04T12:19:18;48.77;;;18.97;;
52798;SDS011;38667;42.872;74.622;2024-02-04T12:21:44;38.17;;;18.70;;
52798;SDS011;38667;42.872;74.622;2024-02-04T12:24:11;46.67;;;20.57;;
52798;SDS011;38667;42.872;74.622;2024-02-04T12:26:37;49.63;;;22.80;;
52798;SDS011;38667;42.872;74.622;2024-02-04T12:29:06;67.80;;;30.37;;
52798;SDS011;38667;42.872;74.622;2024-02-04T12:31:32;78.60;;;31.80;;
52798;SDS011;38667;42.872;74.622;2024-02-04T12:33:59;69.30;;;32.03;;
52798;SDS011;38667;42.872;74.622;2024-02-04T12:36:27;78.50;;;35.40;;
52798;SDS011;38667;42.872;74.622;2024-02-04T12:38:54;74.03;;;34.33;;
52798;SDS011;38667;42.872;74.622;2024-02-04T12:41:21;76.10;;;35.70;;
52798;SDS011;38667;42.872;74.622;2024-02-04T12:43:51;73.20;;;35.43;;
52798;SDS011;38667;42.872;74.622;2024-02-04T12:46:18;68.40;;;32.80;;
52798;SDS011;38667;42.872;74.622;2024-02-04T12:48:45;70.73;;;33.00;;
52798;SDS011;38667;42.872;74.622;2024-02-04T12:51:22;72.83;;;32.47;;
52798;SDS011;38667;42.872;74.622;2024-02-04T12:53:51;70.90;;;33.27;;
52798;SDS011;38667;42.872;74.622;2024-02-04T12:56:39;72.87;;;33.27;;
52798;SDS011;38667;42.872;74.622;2024-02-04T12:59:06;73.90;;;33.40;;
52798;SDS011;38667;42.872;74.622;2024-02-04T13:01:33;87.87;;;35.93;;
52798;SDS011;38667;42.872;74.622;2024-02-04T13:04:00;88.90;;;34.30;;
52798;SDS011;38667;42.872;74.622;2024-02-04T13:06:26;70.70;;;34.73;;
52798;SDS011;38667;42.872;74.622;2024-02-04T13:08:55;80.90;;;34.20;;
52798;SDS011;38667;42.872;74.622;2024-02-04T13:11:22;66.63;;;34.57;;
52798;SDS011;38667;42.872;74.622;2024-02-04T13:13:48;71.57;;;34.40;;
52798;SDS011;38667;42.872;74.622;2024-02-04T13:16:15;83.30;;;35.83;;
52798;SDS011;38667;42.872;74.622;2024-02-04T13:18:41;76.33;;;35.37;;
52798;SDS011;38667;42.872;74.622;2024-02-04T13:21:07;76.87;;;36.30;;
52798;SDS011;38667;42.872;74.622;2024-02-04T13:23:34;71.70;;;36.47;;
52798;SDS011;38667;42.872;74.622;2024-02-04T13:26:02;75.73;;;35.50;;
52798;SDS011;38667;42.872;74.622;2024-02-04T13:28:28;72.23;;;33.77;;
52798;SDS011;38667;42.872;74.622;2024-02-04T13:30:54;69.60;;;31.97;;
52798;SDS011;38667;42.872;74.622;2024-02-04T13:33:22;70.07;;;33.03;;
52798;SDS011;38667;42.872;74.622;2024-02-04T13:35:48;67.57;;;31.60;;
52798;SDS011;38667;42.872;74.622;2024-02-04T13:38:14;61.40;;;30.83;;
52798;SDS011;38667;42.872;74.622;2024-02-04T13:40:41;67.27;;;30.73;;
52798;SDS011;38667;42.872;74.622;2024-02-04T13:43:09;68.00;;;31.90;;
52798;SDS011;38667;42.872;74.622;2024-02-04T13:45:35;75.83;;;34.40;;
52798;SDS011;38667;42.872;74.622;2024-02-04T13:48:01;74.70;;;33.03;;
52798;SDS011;38667;42.872;74.622;2024-02-04T13:50:28;78.13;;;36.37;;
52798;SDS011;38667;42.872;74.622;2024-02-04T13:52:54;83.17;;;40.13;;
52798;SDS011;38667;42.872;74.622;2024-02-04T13:55:21;92.97;;;42.03;;
52798;SDS011;38667;42.872;74.622;2024-02-04T13:57:47;97.07;;;45.07;;
52798;SDS011;38667;42.872;74.622;2024-02-04T14:00:16;90.23;;;43.13;;
52798;SDS011;38667;42.872;74.622;2024-02-04T14:02:43;95.77;;;46.20;;
52798;SDS011;38667;42.872;74.622;2024-02-04T14:05:09;91.90;;;43.50;;
52798;SDS011;38667;42.872;74.622;2024-02-04T14:07:36;96.17;;;45.27;;
52798;SDS011;38667;42.872;74.622;2024-02-04T14:10:02;89.43;;;42.13;;